Time;durP1;ratioP1;P1;durP2;ratioP2;P2;SDS_P1;SDS_P2;PMS_P1;PMS_P2;Temp;Humidity;BMP_temperature;BMP_pressure;BME280_temperature;BME280_humidity;BME280_pressure;Samples;Min_cycle;Max_cycle;Signal;HPM_P1;HPM_P2
2023/01/25 06:45:49;;;;;;;54.33;28.17;;;2.10;99.90;;;;;;4691206;23;20803;-95
2023/01/25 07:36:10;;;;;;;;;;;;;;;;;;;;;
2023/01/25 07:57:03;;;;;;;56.73;29.33;;;1.80;99.90;;;;;;3839339;30;20225;-95
2023/01/25 08:01:01;;;;;;;;;;;;;;;;;;;;;
2023/01/25 09:23:22;;;;;;;77.03;39.83;;;2.80;99.90;;;;;;5026575;23;20196;-92
2023/01/25 09:25:34;;;;;;;99.97;48.17;;;2.50;99.90;;;;;;4945180;23;1312731;-94
2023/01/25 09:27:39;;;;;;;71.70;37.97;;;2.60;99.90;;;;;;4991053;23;20186;-93
2023/01/25 09:29:42;;;;;;;65.77;34.50;;;2.70;99.90;;;;;;5025356;23;20163;-93
2023/01/25 09:31:58;;;;;;;114.63;54.77;;;2.70;99.90;;;;;;4999267;23;20171;-94
2023/01/25 09:34:19;;;;;;;56.93;30.53;;;2.60;99.90;;;;;;5026351;23;20165;-94
2023/01/25 09:36:20;;;;;;;133.33;72.07;;;2.50;99.90;;;;;;5022963;23;20491;-93
2023/01/25 09:38:23;;;;;;;67.63;34.90;;;2.60;99.90;;;;;;4998080;23;20188;-93
2023/01/25 09:40:29;;;;;;;67.90;34.67;;;2.70;99.90;;;;;;4998444;23;20155;-93
2023/01/25 09:42:45;;;;;;;67.20;35.20;;;2.90;99.90;;;;;;5021945;23;20487;-94
2023/01/25 09:45:04;;;;;;;63.90;33.20;;;3.00;99.90;;;;;;5023363;23;20214;-93
2023/01/25 09:47:26;;;;;;;88.47;42.70;;;3.10;99.90;;;;;;5021799;23;20217;-95
2023/01/25 09:50:00;;;;;;;71.60;35.93;;;3.40;99.90;;;;;;5022923;23;20160;-95
2023/01/25 09:52:09;;;;;;;71.30;32.57;;;4.00;99.90;;;;;;5021780;23;20155;-93
2023/01/25 09:54:13;;;;;;;71.53;36.73;;;3.70;99.90;;;;;;4998334;23;20293;-93
2023/01/25 09:56:32;;;;;;;78.07;38.03;;;3.40;99.90;;;;;;5021896;23;20243;-93
2023/01/25 09:58:45;;;;;;;69.63;35.50;;;2.90;99.90;;;;;;4997832;23;20233;-92
2023/01/25 10:00:51;;;;;;;73.67;34.17;;;3.20;99.90;;;;;;5021829;23;20233;-94
2023/01/25 10:03:10;;;;;;;68.70;34.63;;;2.50;99.90;;;;;;4998957;23;20148;-92
2023/01/25 10:05:26;;;;;;;68.00;34.93;;;1.60;99.90;;;;;;4999996;23;20837;-94
2023/01/25 10:07:46;;;;;;;74.00;36.53;;;1.30;99.90;;;;;;4998128;23;20256;-95
2023/01/25 10:10:05;;;;;;;78.40;37.47;;;2.10;99.90;;;;;;4999476;23;20163;-96
2023/01/25 10:12:24;;;;;;;79.50;38.07;;;2.50;99.90;;;;;;4999539;23;20160;-95
2023/01/25 10:14:25;;;;;;;76.53;37.60;;;2.20;99.90;;;;;;4999869;23;20166;-95
2023/01/25 10:16:51;;;;;;;69.03;34.87;;;1.90;99.90;;;;;;5022305;23;20166;-95
2023/01/25 10:19:09;;;;;;;70.73;33.50;;;1.80;99.90;;;;;;4999080;23;20263;-95
2023/01/25 10:21:25;;;;;;;72.60;34.40;;;1.10;99.90;;;;;;4998189;23;20172;-93
2023/01/25 10:24:00;;;;;;;53.40;23.13;;;1.20;99.90;;;;;;4998875;23;20154;-92
2023/01/25 10:26:18;;;;;;;69.17;32.87;;;1.30;99.90;;;;;;4989928;23;20162;-95
2023/01/25 10:28:37;;;;;;;67.93;33.40;;;1.10;99.90;;;;;;5046201;23;20170;-95
2023/01/25 10:30:43;;;;;;;66.00;32.57;;;1.10;99.90;;;;;;5022405;23;20520;-95
2023/01/25 10:32:45;;;;;;;74.00;35.17;;;1.30;99.90;;;;;;4998150;23;20674;-92
2023/01/25 10:34:49;;;;;;;74.77;35.53;;;1.40;99.90;;;;;;4998144;23;20598;-94
2023/01/25 10:36:54;;;;;;;70.27;34.87;;;1.70;99.90;;;;;;4998345;23;20155;-94
2023/01/25 10:38:59;;;;;;;75.30;34.90;;;1.50;99.90;;;;;;5021763;23;20186;-94
2023/01/25 10:41:18;;;;;;;66.07;33.77;;;1.30;99.90;;;;;;5024826;23;20135;-93
2023/01/25 10:43:20;;;;;;;66.47;33.97;;;1.40;99.90;;;;;;5021959;23;20161;-94
2023/01/25 10:45:21;;;;;;;68.23;33.97;;;1.40;99.90;;;;;;5023147;23;20155;-93
2023/01/25 10:47:26;;;;;;;69.43;35.13;;;1.50;99.90;;;;;;4998460;23;20180;-93
2023/01/25 10:49:34;;;;;;;71.47;34.07;;;1.80;99.90;;;;;;4998729;23;20183;-94
2023/01/25 10:51:34;;;;;;;75.33;36.73;;;2.00;99.90;;;;;;5000755;23;20155;-93
2023/01/25 10:53:43;;;;;;;70.07;36.40;;;2.10;99.90;;;;;;5021773;23;20155;-94
2023/01/25 10:56:19;;;;;;;68.93;35.17;;;2.30;99.90;;;;;;4997534;23;20186;-93
2023/01/25 10:58:43;;;;;;;70.80;36.23;;;2.40;99.90;;;;;;4998581;23;20195;-94
2023/01/25 11:00:50;;;;;;;67.47;35.00;;;2.50;99.90;;;;;;4998129;23;20619;-93
2023/01/25 11:02:52;;;;;;;70.17;37.03;;;2.20;99.90;;;;;;5022798;23;20560;-93
2023/01/25 11:04:56;;;;;;;71.47;36.40;;;2.10;99.90;;;;;;4999767;23;20177;-93
2023/01/25 11:06:58;;;;;;;74.10;37.47;;;2.00;99.90;;;;;;4998323;23;20162;-94
2023/01/25 11:09:00;;;;;;;69.90;34.97;;;2.20;99.90;;;;;;4997781;23;20160;-94
2023/01/25 11:11:31;;;;;;;70.13;36.47;;;2.40;99.90;;;;;;4998516;23;20156;-94
2023/01/25 11:13:33;;;;;;;77.07;38.07;;;2.60;99.90;;;;;;4998963;23;20190;-93
2023/01/25 11:15:33;;;;;;;81.60;39.87;;;2.70;99.90;;;;;;4999807;23;20159;-95
2023/01/25 11:17:36;;;;;;;75.73;38.53;;;2.70;99.90;;;;;;5021293;23;20170;-94
2023/01/25 11:19:39;;;;;;;74.73;37.70;;;2.80;99.90;;;;;;5025859;23;20155;-93
2023/01/25 11:21:53;;;;;;;80.83;38.87;;;3.00;99.90;;;;;;4999232;23;20156;-93
2023/01/25 11:24:08;;;;;;;76.60;37.67;;;3.00;99.90;;;;;;5021810;23;20146;-93
2023/01/25 11:26:17;;;;;;;71.90;36.43;;;3.10;99.90;;;;;;4997368;23;20216;-93
2023/01/25 11:28:22;;;;;;;73.53;39.00;;;3.00;99.90;;;;;;4998906;23;20642;-93
2023/01/25 11:30:23;;;;;;;74.23;36.60;;;3.10;99.90;;;;;;4997360;23;20163;-94
2023/01/25 11:32:24;;;;;;;74.00;38.13;;;3.20;99.90;;;;;;5022146;23;20222;-94
2023/01/25 11:34:27;;;;;;;70.73;37.30;;;3.30;99.90;;;;;;4997935;23;20187;-94
2023/01/25 11:37:00;;;;;;;76.80;38.27;;;3.30;99.90;;;;;;4997307;23;20148;-94
2023/01/25 11:39:24;;;;;;;76.43;37.87;;;3.30;99.90;;;;;;4997011;23;20266;-95
2023/01/25 11:41:52;;;;;;;69.17;34.80;;;3.40;99.90;;;;;;4988316;23;20159;-93
2023/01/25 11:43:59;;;;;;;71.97;36.27;;;3.50;99.90;;;;;;4998043;23;20211;-94
2023/01/25 11:46:20;;;;;;;77.13;38.23;;;3.40;99.90;;;;;;4999013;23;20266;-93
2023/01/25 11:48:42;;;;;;;77.10;37.13;;;2.80;99.90;;;;;;5021217;23;20179;-93
2023/01/25 11:51:13;;;;;;;75.20;35.57;;;2.70;99.90;;;;;;4997098;23;20246;-93
2023/01/25 11:53:34;;;;;;;82.80;38.03;;;2.40;99.90;;;;;;4998659;23;20160;-93
2023/01/25 11:56:09;;;;;;;75.17;35.93;;;2.70;99.90;;;;;;4997419;23;20147;-93
2023/01/25 11:58:35;;;;;;;73.23;37.13;;;2.70;99.90;;;;;;4957567;23;20270;-94
2023/01/25 12:01:08;;;;;;;71.10;35.77;;;2.70;99.90;;;;;;4999529;23;20563;-93
2023/01/25 12:03:39;;;;;;;76.57;38.37;;;2.80;99.90;;;;;;4974432;23;20171;-93
2023/01/25 12:05:41;;;;;;;70.83;35.90;;;2.80;99.90;;;;;;5022522;23;20162;-93
2023/01/25 12:07:53;;;;;;;68.87;36.20;;;3.00;99.90;;;;;;5022731;23;20186;-93
2023/01/25 12:10:22;;;;;;;73.73;35.63;;;3.20;99.90;;;;;;4997822;23;20485;-93
2023/01/25 12:12:53;;;;;;;69.50;35.47;;;3.10;99.90;;;;;;4997556;23;20211;-93
2023/01/25 12:15:14;;;;;;;71.27;35.70;;;3.00;99.90;;;;;;4997696;23;20202;-93
2023/01/25 12:17:36;;;;;;;71.33;36.30;;;3.00;99.90;;;;;;4997202;23;20179;-93
2023/01/25 12:20:30;;;;;;;71.23;37.40;;;3.20;99.90;;;;;;4999488;23;20250;-94
2023/01/25 12:23:01;;;;;;;73.00;35.43;;;3.10;99.90;;;;;;4926838;24;20198;-94
2023/01/25 12:25:31;;;;;;;67.30;36.07;;;3.10;99.90;;;;;;4926859;24;20166;-93
2023/01/25 12:27:51;;;;;;;70.33;36.03;;;2.90;99.90;;;;;;4956271;23;20174;-93
2023/01/25 12:30:03;;;;;;;71.60;35.30;;;2.70;99.90;;;;;;5020920;23;20509;-93
2023/01/25 12:32:09;;;;;;;66.70;34.30;;;2.40;99.90;;;;;;5020381;23;20157;-93
2023/01/25 12:34:18;;;;;;;72.37;36.87;;;2.20;99.90;;;;;;4997032;23;20219;-93
2023/01/25 12:36:32;;;;;;;71.70;35.90;;;2.20;99.90;;;;;;4997222;23;20226;-94
2023/01/25 12:38:41;;;;;;;80.20;36.93;;;2.40;99.90;;;;;;4997080;23;20278;-92
2023/01/25 12:40:54;;;;;;;71.03;36.37;;;2.50;99.90;;;;;;4996935;23;20147;-93
2023/01/25 12:43:04;;;;;;;73.80;37.47;;;2.60;99.90;;;;;;5021008;23;20618;-93
2023/01/25 12:45:19;;;;;;;74.30;37.83;;;2.90;99.90;;;;;;5044801;23;20155;-94
2023/01/25 12:47:31;;;;;;;71.47;36.17;;;3.40;99.90;;;;;;4997451;23;20175;-94
2023/01/25 12:50:01;;;;;;;74.23;37.33;;;3.40;99.90;;;;;;4997224;23;20630;-94
2023/01/25 12:52:28;;;;;;;69.43;35.87;;;3.30;99.90;;;;;;4997487;23;20167;-94
2023/01/25 12:54:33;;;;;;;70.87;34.37;;;3.10;99.90;;;;;;5020913;23;20211;-95
2023/01/25 12:56:57;;;;;;;73.43;36.53;;;3.00;99.90;;;;;;5022672;23;20158;-94
2023/01/25 12:59:26;;;;;;;69.07;36.00;;;2.90;99.90;;;;;;5019409;23;20221;-94
2023/01/25 13:01:44;;;;;;;75.47;36.50;;;3.20;99.90;;;;;;5022791;23;20151;-92
2023/01/25 13:04:00;;;;;;;70.43;35.63;;;3.30;99.90;;;;;;4999396;23;20476;-96
2023/01/25 13:06:21;;;;;;;73.67;37.03;;;3.10;99.90;;;;;;5021809;23;20165;-94
2023/01/25 13:08:41;;;;;;;73.13;35.83;;;2.80;99.90;;;;;;4999986;23;20171;-94
2023/01/25 13:11:12;;;;;;;80.90;36.90;;;3.00;99.90;;;;;;4999023;23;20151;-94
2023/01/25 13:13:20;;;;;;;75.20;36.67;;;2.90;99.90;;;;;;5001902;23;20159;-94
2023/01/25 13:15:44;;;;;;;75.70;37.33;;;2.60;99.90;;;;;;4998366;23;20151;-94
2023/01/25 13:17:48;;;;;;;77.83;35.93;;;2.80;99.90;;;;;;4998347;23;20171;-95
2023/01/25 13:19:50;;;;;;;75.43;36.87;;;2.90;99.90;;;;;;5023837;23;20618;-95
2023/01/25 13:21:55;;;;;;;71.50;35.37;;;3.10;99.90;;;;;;4998876;23;20148;-93
2023/01/25 13:24:23;;;;;;;76.10;36.30;;;2.90;99.90;;;;;;4999131;23;20248;-95
2023/01/25 13:26:23;;;;;;;74.77;36.10;;;3.20;99.90;;;;;;4998634;23;20179;-93
2023/01/25 13:28:41;;;;;;;82.73;36.60;;;3.60;99.90;;;;;;4999675;23;20179;-95
2023/01/25 13:30:51;;;;;;;74.07;37.43;;;3.30;99.90;;;;;;5022162;23;20167;-94
2023/01/25 13:32:55;;;;;;;74.00;35.93;;;3.10;99.90;;;;;;4999576;23;20160;-92
2023/01/25 13:34:57;;;;;;;74.10;35.80;;;3.00;99.90;;;;;;4998533;23;20155;-93
2023/01/25 13:36:58;;;;;;;74.07;36.50;;;2.80;99.90;;;;;;4998124;23;20155;-94
2023/01/25 13:39:30;;;;;;;79.73;37.47;;;2.60;99.90;;;;;;4998878;23;20198;-94
2023/01/25 13:41:31;;;;;;;73.73;36.40;;;2.60;99.90;;;;;;4998062;23;20673;-93
2023/01/25 13:43:31;;;;;;;73.47;34.97;;;2.80;99.90;;;;;;5024041;23;20162;-94
2023/01/25 13:45:38;;;;;;;75.80;35.10;;;2.80;99.90;;;;;;5025490;23;20162;-94
2023/01/25 13:47:41;;;;;;;75.10;34.13;;;2.80;99.90;;;;;;5024962;23;20174;-94
2023/01/25 13:49:50;;;;;;;72.30;34.33;;;2.70;99.90;;;;;;4998276;23;20217;-95
2023/01/25 13:51:51;;;;;;;69.27;34.73;;;3.00;99.90;;;;;;4998078;23;20155;-93
2023/01/25 13:53:58;;;;;;;75.70;35.23;;;3.30;99.90;;;;;;4998265;23;20185;-93
2023/01/25 13:56:02;;;;;;;73.20;35.10;;;2.90;99.90;;;;;;5022446;23;20158;-95
2023/01/25 13:58:15;;;;;;;75.10;36.40;;;2.80;99.90;;;;;;4997677;23;20730;-92
2023/01/25 14:00:17;;;;;;;74.40;35.93;;;2.70;99.90;;;;;;4999496;23;20631;-93
2023/01/25 14:02:24;;;;;;;73.70;34.23;;;2.50;99.90;;;;;;4998708;23;20494;-94
2023/01/25 14:04:27;;;;;;;69.80;34.10;;;2.40;99.90;;;;;;4998395;23;20159;-94
2023/01/25 14:06:32;;;;;;;80.03;36.77;;;2.40;99.90;;;;;;4999475;23;20546;-94
2023/01/25 14:08:33;;;;;;;72.03;35.73;;;2.50;99.90;;;;;;4999312;23;20175;-95
2023/01/25 14:10:37;;;;;;;82.93;35.97;;;2.60;99.90;;;;;;5021581;23;20151;-94
2023/01/25 14:12:42;;;;;;;80.50;33.80;;;2.30;99.90;;;;;;5023222;23;20166;-94
2023/01/25 14:15:19;;;;;;;78.13;37.13;;;2.40;99.90;;;;;;4999802;23;20167;-93
2023/01/25 14:17:25;;;;;;;73.70;35.97;;;2.30;99.90;;;;;;5036233;23;20178;-94
2023/01/25 14:19:29;;;;;;;74.53;33.87;;;2.20;99.90;;;;;;5045856;23;20194;-94
2023/01/25 14:21:30;;;;;;;73.90;35.07;;;2.40;99.90;;;;;;5046063;23;20225;-95
2023/01/25 14:23:33;;;;;;;72.67;35.40;;;2.20;99.90;;;;;;5000080;23;20603;-95
2023/01/25 14:25:33;;;;;;;76.50;36.20;;;2.40;99.90;;;;;;5022916;23;20167;-94
2023/01/25 14:27:39;;;;;;;72.63;35.77;;;2.40;99.90;;;;;;5021889;23;20619;-93
2023/01/25 14:29:46;;;;;;;75.73;35.40;;;2.40;99.90;;;;;;4999639;23;20156;-94
2023/01/25 14:31:50;;;;;;;77.03;36.33;;;2.30;99.90;;;;;;5021847;23;20155;-94
2023/01/25 14:34:01;;;;;;;75.67;36.20;;;2.40;99.90;;;;;;5021974;23;20634;-95
2023/01/25 14:36:05;;;;;;;71.87;34.37;;;2.20;99.90;;;;;;4998354;23;20674;-94
2023/01/25 14:38:34;;;;;;;75.63;36.03;;;2.00;99.90;;;;;;4999630;23;20555;-94
2023/01/25 14:40:36;;;;;;;74.67;35.80;;;2.00;99.90;;;;;;5021660;23;20163;-94
2023/01/25 14:42:37;;;;;;;85.13;37.43;;;2.30;99.90;;;;;;5021949;23;20155;-94
2023/01/25 14:44:38;;;;;;;81.20;37.70;;;2.20;99.90;;;;;;5021759;23;20155;-93
2023/01/25 14:46:40;;;;;;;77.07;37.03;;;2.30;99.90;;;;;;4998732;23;20159;-95
2023/01/25 14:48:41;;;;;;;78.90;35.70;;;2.50;99.90;;;;;;4998005;23;20585;-95
2023/01/25 14:50:42;;;;;;;80.10;36.60;;;2.40;99.90;;;;;;5022849;23;20161;-94
2023/01/25 14:52:43;;;;;;;80.00;35.87;;;2.30;99.90;;;;;;4999334;23;20179;-94
2023/01/25 14:54:53;;;;;;;77.57;35.93;;;2.30;99.90;;;;;;5023776;23;20189;-94
2023/01/25 14:56:59;;;;;;;84.47;37.63;;;2.20;99.90;;;;;;4997928;23;20151;-94
2023/01/25 14:59:00;;;;;;;75.80;36.17;;;2.50;99.90;;;;;;4998154;23;20191;-94
2023/01/25 15:01:02;;;;;;;81.23;37.50;;;2.50;99.90;;;;;;4998436;23;20156;-94
2023/01/25 15:03:13;;;;;;;79.43;37.37;;;2.40;99.90;;;;;;4998246;23;20235;-95
2023/01/25 15:05:28;;;;;;;71.73;30.47;;;2.40;99.90;;;;;;5021538;23;20154;-93
2023/01/25 15:07:51;;;;;;;80.30;36.63;;;2.10;99.90;;;;;;4997631;23;20247;-94
2023/01/25 15:10:17;;;;;;;80.57;37.20;;;1.80;99.90;;;;;;4999313;23;20183;-94
2023/01/25 15:12:31;;;;;;;84.80;37.00;;;1.90;99.90;;;;;;5000073;23;20513;-95
2023/01/25 15:14:50;;;;;;;83.77;37.77;;;2.00;99.90;;;;;;5043149;23;20158;-94
2023/01/25 15:16:51;;;;;;;76.90;35.73;;;2.10;99.90;;;;;;5045309;23;20184;-95
2023/01/25 15:18:54;;;;;;;78.67;37.73;;;2.20;99.90;;;;;;4997262;23;20642;-94
2023/01/25 15:20:57;;;;;;;82.43;38.80;;;2.30;99.90;;;;;;5021477;23;20233;-94
2023/01/25 15:23:25;;;;;;;85.77;38.27;;;2.30;99.90;;;;;;5020818;23;20155;-95
2023/01/25 15:25:26;;;;;;;83.93;39.07;;;2.30;99.90;;;;;;5021883;23;20246;-93
2023/01/25 15:27:26;;;;;;;83.40;37.07;;;2.20;99.90;;;;;;5021554;23;20175;-95
2023/01/25 15:29:27;;;;;;;86.10;38.87;;;1.90;99.90;;;;;;5022294;23;20151;-94
2023/01/25 15:31:33;;;;;;;82.83;37.40;;;1.90;99.90;;;;;;4997903;23;20179;-94
2023/01/25 15:33:34;;;;;;;79.97;36.53;;;2.00;99.90;;;;;;4998267;23;20226;-94
2023/01/25 15:35:35;;;;;;;81.67;37.27;;;1.90;99.90;;;;;;5022763;23;20158;-95
2023/01/25 15:37:36;;;;;;;90.80;38.63;;;2.00;99.90;;;;;;5022228;23;20230;-94
2023/01/25 15:39:38;;;;;;;86.20;37.80;;;1.80;99.90;;;;;;5022508;23;20187;-95
2023/01/25 15:41:41;;;;;;;86.67;38.00;;;1.80;99.90;;;;;;4998178;23;20523;-95
2023/01/25 15:43:42;;;;;;;82.03;37.23;;;1.70;99.90;;;;;;4998726;23;20207;-95
2023/01/25 15:45:49;;;;;;;86.80;37.40;;;1.80;99.90;;;;;;5021476;23;20170;-94
2023/01/25 15:47:49;;;;;;;96.23;39.70;;;1.80;99.90;;;;;;5045783;23;20216;-94
2023/01/25 15:49:52;;;;;;;95.63;39.50;;;1.60;99.90;;;;;;4999085;23;20159;-94
2023/01/25 15:51:54;;;;;;;82.63;37.60;;;1.70;99.90;;;;;;5002597;23;20163;-94
2023/01/25 15:53:55;;;;;;;85.57;37.33;;;1.70;99.90;;;;;;4999322;23;20200;-94
2023/01/25 15:56:19;;;;;;;87.20;39.00;;;1.80;99.90;;;;;;4999700;23;20167;-95
2023/01/25 15:58:24;;;;;;;90.27;40.93;;;1.70;99.90;;;;;;4997134;23;20191;-94
2023/01/25 16:00:25;;;;;;;85.97;38.57;;;1.70;99.90;;;;;;4997693;23;20488;-94
2023/01/25 16:02:26;;;;;;;86.63;39.17;;;1.80;99.90;;;;;;5022919;23;20211;-94
2023/01/25 16:04:27;;;;;;;91.60;39.30;;;1.70;99.90;;;;;;5022671;23;20155;-93
2023/01/25 16:06:49;;;;;;;88.33;36.80;;;1.80;99.90;;;;;;4997770;23;20158;-94
2023/01/25 16:08:49;;;;;;;89.60;38.00;;;1.80;99.90;;;;;;4997267;23;20500;-93
2023/01/25 16:10:50;;;;;;;92.93;41.27;;;1.60;99.90;;;;;;5022896;23;20183;-93
2023/01/25 16:12:51;;;;;;;93.37;39.43;;;1.60;99.90;;;;;;5023007;23;20502;-93
2023/01/25 16:14:52;;;;;;;95.80;40.20;;;1.60;99.90;;;;;;5021146;23;20229;-94
2023/01/25 16:16:59;;;;;;;97.53;39.10;;;1.80;99.90;;;;;;4997724;23;20179;-94
2023/01/25 16:19:00;;;;;;;91.63;39.47;;;1.50;99.90;;;;;;4998340;23;20191;-94
2023/01/25 16:21:02;;;;;;;90.13;37.43;;;1.40;99.90;;;;;;5021062;23;20155;-93
2023/01/25 16:23:02;;;;;;;101.20;41.70;;;1.20;99.90;;;;;;5021209;23;20157;-94
2023/01/25 16:25:03;;;;;;;97.90;40.00;;;1.20;99.90;;;;;;5021349;23;20178;-92
2023/01/25 16:27:04;;;;;;;95.50;38.90;;;1.10;99.90;;;;;;4997115;23;20207;-94
2023/01/25 16:29:05;;;;;;;70.20;29.60;;;0.90;99.90;;;;;;4997153;23;20238;-94
2023/01/25 16:31:13;;;;;;;93.07;39.53;;;0.80;99.90;;;;;;4997667;23;20152;-93
2023/01/25 16:33:14;;;;;;;102.80;41.47;;;1.00;99.90;;;;;;4997241;23;20156;-93
2023/01/25 16:35:15;;;;;;;101.90;39.20;;;1.20;99.90;;;;;;5021485;23;20610;-94
2023/01/25 16:37:17;;;;;;;96.80;36.87;;;1.10;99.90;;;;;;5021237;23;20186;-91
2023/01/25 16:39:23;;;;;;;105.00;39.53;;;1.20;99.90;;;;;;4997238;23;20278;-93
2023/01/25 16:41:24;;;;;;;107.23;41.97;;;1.30;99.90;;;;;;4998938;23;20346;-94
2023/01/25 16:43:25;;;;;;;106.90;43.40;;;1.10;99.90;;;;;;5009289;23;20163;-93
2023/01/25 16:45:26;;;;;;;112.23;43.43;;;1.30;99.90;;;;;;5015324;23;20148;-94
2023/01/25 16:47:26;;;;;;;101.50;39.27;;;1.50;99.90;;;;;;5020461;23;20171;-93
2023/01/25 16:49:29;;;;;;;110.00;40.10;;;1.50;99.90;;;;;;5016350;23;20302;-93
2023/01/25 16:51:31;;;;;;;117.87;43.40;;;1.20;99.90;;;;;;4999958;23;20151;-93
2023/01/25 16:53:32;;;;;;;111.73;43.30;;;1.30;99.90;;;;;;5003357;23;20187;-95
2023/01/25 16:55:35;;;;;;;118.70;42.37;;;1.30;99.90;;;;;;5028748;23;20155;-94
2023/01/25 16:57:48;;;;;;;118.37;40.53;;;0.90;99.90;;;;;;5027725;23;20182;-93
2023/01/25 17:00:04;;;;;;;117.80;44.70;;;0.80;99.90;;;;;;5029381;23;20174;-94
2023/01/25 17:02:05;;;;;;;132.93;50.40;;;0.80;99.90;;;;;;5004033;23;20163;-93
2023/01/25 17:04:06;;;;;;;136.27;51.10;;;0.80;99.90;;;;;;5004926;23;20156;-94
2023/01/25 17:06:13;;;;;;;135.27;51.97;;;0.80;99.90;;;;;;5027049;23;20191;-94
2023/01/25 17:08:14;;;;;;;117.60;43.23;;;0.90;99.90;;;;;;5029483;23;20717;-94
2023/01/25 17:10:15;;;;;;;125.93;45.17;;;1.10;99.90;;;;;;5002615;23;20195;-94
2023/01/25 17:12:31;;;;;;;115.50;43.50;;;1.20;99.90;;;;;;5027511;23;20242;-93
2023/01/25 17:14:32;;;;;;;115.07;42.53;;;1.30;99.90;;;;;;5050164;23;20147;-94
2023/01/25 17:16:36;;;;;;;123.47;46.83;;;1.40;99.90;;;;;;5002331;23;20146;-94
2023/01/25 17:18:37;;;;;;;128.57;46.97;;;1.50;99.90;;;;;;5025030;23;20198;-95
2023/01/25 17:20:42;;;;;;;118.93;43.23;;;1.50;99.90;;;;;;5028936;23;20162;-95
2023/01/25 17:22:53;;;;;;;122.87;43.47;;;1.40;99.90;;;;;;5005987;23;20147;-94
2023/01/25 17:25:07;;;;;;;119.17;43.43;;;1.20;99.90;;;;;;5024704;23;20139;-93
2023/01/25 17:27:14;;;;;;;117.40;41.57;;;1.30;99.90;;;;;;5001697;23;20178;-94
2023/01/25 17:29:15;;;;;;;117.37;44.03;;;1.50;99.90;;;;;;5007844;23;20211;-93
2023/01/25 17:31:21;;;;;;;119.43;42.60;;;1.50;99.90;;;;;;5002371;23;20156;-92
2023/01/25 17:33:22;;;;;;;124.07;44.40;;;1.60;99.90;;;;;;5000041;23;20199;-91
2023/01/25 17:35:22;;;;;;;115.37;42.17;;;1.40;99.90;;;;;;5023402;23;20155;-91
2023/01/25 17:37:23;;;;;;;116.80;43.87;;;1.60;99.90;;;;;;4999447;23;20255;-92
2023/01/25 17:39:24;;;;;;;130.13;45.17;;;1.50;99.90;;;;;;4999079;23;20199;-91
2023/01/25 17:41:25;;;;;;;125.37;44.60;;;1.80;99.90;;;;;;5022934;23;20166;-92
2023/01/25 17:43:26;;;;;;;121.00;43.00;;;2.10;99.90;;;;;;4999360;23;20152;-91
2023/01/25 17:45:27;;;;;;;117.50;44.33;;;1.90;99.90;;;;;;4999471;23;20151;-93
2023/01/25 17:47:30;;;;;;;127.53;43.43;;;2.10;99.90;;;;;;4999197;23;20172;-92
2023/01/25 17:49:31;;;;;;;119.40;42.80;;;1.80;99.90;;;;;;5022813;23;20246;-92
2023/01/25 17:51:33;;;;;;;123.07;44.60;;;1.90;99.90;;;;;;4998858;23;20159;-91
2023/01/25 17:53:34;;;;;;;121.23;43.47;;;1.90;99.90;;;;;;4998272;23;20155;-92
2023/01/25 17:55:36;;;;;;;122.30;44.67;;;2.00;99.90;;;;;;4998731;23;20196;-92
2023/01/25 17:57:37;;;;;;;118.40;43.33;;;1.70;99.90;;;;;;5021875;23;20178;-92
2023/01/25 17:59:38;;;;;;;118.67;44.53;;;1.70;99.90;;;;;;5023112;23;20578;-94
2023/01/25 18:01:41;;;;;;;126.50;43.87;;;1.60;99.90;;;;;;5022512;23;20150;-93
2023/01/25 18:03:43;;;;;;;120.13;43.57;;;1.40;99.90;;;;;;5022622;23;20151;-92
2023/01/25 18:05:44;;;;;;;119.47;43.53;;;1.40;99.90;;;;;;5022384;23;20186;-91
2023/01/25 18:07:45;;;;;;;121.63;43.90;;;1.50;99.90;;;;;;4998706;23;20171;-92
2023/01/25 18:09:46;;;;;;;120.93;45.53;;;1.70;99.90;;;;;;4998899;23;20162;-93
2023/01/25 18:11:47;;;;;;;118.83;44.70;;;1.80;99.90;;;;;;5023127;23;20195;-91
2023/01/25 18:13:50;;;;;;;128.03;45.53;;;1.60;99.90;;;;;;4999082;23;20275;-91
2023/01/25 18:15:54;;;;;;;130.47;44.80;;;1.50;99.90;;;;;;4998931;23;20152;-92
2023/01/25 18:17:55;;;;;;;128.63;46.20;;;1.40;99.90;;;;;;4998598;23;20167;-94
2023/01/25 18:19:56;;;;;;;127.30;43.40;;;1.50;99.90;;;;;;4998787;23;20246;-93
2023/01/25 18:21:57;;;;;;;121.53;43.87;;;1.30;99.90;;;;;;5022800;23;20170;-95
2023/01/25 18:24:19;;;;;;;124.20;42.17;;;1.00;99.90;;;;;;5022784;23;20155;-93
2023/01/25 18:26:26;;;;;;;117.03;43.27;;;1.00;99.90;;;;;;4998166;23;20167;-92
2023/01/25 18:28:26;;;;;;;128.40;46.03;;;1.30;99.90;;;;;;4998490;23;20231;-92
2023/01/25 18:30:57;;;;;;;126.47;43.23;;;1.30;99.90;;;;;;5022618;23;20245;-92
2023/01/25 18:32:58;;;;;;;115.83;41.80;;;1.20;99.90;;;;;;5021569;23;20155;-93
2023/01/25 18:34:59;;;;;;;123.17;41.97;;;1.20;99.90;;;;;;5022511;23;20178;-92
2023/01/25 18:37:00;;;;;;;125.67;44.07;;;1.30;99.90;;;;;;5022079;23;20155;-96
2023/01/25 18:39:01;;;;;;;126.73;40.97;;;1.50;99.90;;;;;;5022699;23;20253;-92
2023/01/25 18:41:03;;;;;;;121.30;40.87;;;1.20;99.90;;;;;;4998989;23;20152;-92
2023/01/25 18:43:04;;;;;;;126.80;42.03;;;1.00;99.90;;;;;;4999296;23;20178;-94
2023/01/25 18:45:06;;;;;;;121.67;42.57;;;1.10;99.90;;;;;;4998588;23;20152;-92
2023/01/25 18:47:09;;;;;;;127.90;43.13;;;1.10;99.90;;;;;;4998983;23;20631;-93
2023/01/25 18:49:10;;;;;;;126.00;43.87;;;1.10;99.90;;;;;;5000231;23;20160;-93
2023/01/25 18:51:33;;;;;;;117.80;41.83;;;1.10;99.90;;;;;;5005133;23;20163;-94
2023/01/25 18:54:08;;;;;;;124.73;42.73;;;1.10;99.90;;;;;;5009136;23;20160;-95
2023/01/25 20:10:38;;;;;;;;;;;;;;;;;;;;;
2023/01/25 20:20:54;;;;;;;;;;;;;;;;;;;;;
2023/01/25 20:44:07;;;;;;;133.73;43.10;;;1.50;99.90;;;;;;4999841;23;20255;-94
2023/01/25 20:54:35;;;;;;;;;;;;;;;;;;;;;
2023/01/25 21:12:06;;;;;;;150.77;45.13;;;1.50;99.90;;;;;;4777732;24;20594;-95
2023/01/25 21:14:53;;;;;;;139.80;44.37;;;1.40;99.90;;;;;;4709421;24;20175;-96
2023/01/25 21:20:53;;;;;;;;;;;;;;;;;;;;;
2023/01/25 21:23:35;;;;;;;151.77;45.40;;;1.70;99.90;;;;;;4809888;24;20172;-96
2023/01/25 21:26:45;;;;;;;154.00;45.57;;;1.90;99.90;;;;;;4825028;24;20168;-95
2023/01/25 21:29:39;;;;;;;;;;;;;;;;;;;;;
2023/01/25 21:39:39;;;;;;;;;;;;;;;;;;;;;
2023/01/25 21:42:50;;;;;;;;;;;;;;;;;;;;;
2023/01/25 21:52:56;;;;;;;;;;;;;;;;;;;;;
2023/01/25 22:03:34;;;;;;;;;;;;;;;;;;;;;
2023/01/25 22:10:55;;;;;;;142.40;41.87;;;1.40;99.90;;;;;;4755788;24;20178;-96
2023/01/25 22:24:22;;;;;;;;;;;;;;;;;;;;;
2023/01/25 22:27:52;;;;;;;;;;;;;;;;;;;;;
